createdAt,value
2023-05-16T00:02:32.492Z,12.83
2023-05-16T00:07:25.043Z,12.61
2023-05-16T00:12:17.933Z,12.74
2023-05-16T00:17:13.084Z,12.64
2023-05-16T00:22:06.041Z,12.57
2023-05-16T00:26:57.867Z,12.25
2023-05-16T00:31:49.933Z,12.58
2023-05-16T00:36:43.008Z,12.47
2023-05-16T00:41:35.677Z,12.52
2023-05-16T00:46:28.913Z,12.21
2023-05-16T00:51:21.552Z,12.51
2023-05-16T00:56:13.446Z,12.38
2023-05-16T01:01:05.745Z,12.10
2023-05-16T01:05:59.394Z,12.31
2023-05-16T01:11:06.552Z,12.11
2023-05-16T01:16:13.529Z,12.10
2023-05-16T01:21:18.053Z,11.84
2023-05-16T01:26:22.685Z,11.87
2023-05-16T01:31:14.639Z,11.50
2023-05-16T01:36:41.423Z,11.52
2023-05-16T01:42:14.490Z,11.38
2023-05-16T01:47:11.594Z,11.29
2023-05-16T01:52:17.310Z,11.19
2023-05-16T01:57:11.050Z,11.24
2023-05-16T02:02:03.652Z,11.22
2023-05-16T02:06:57.108Z,10.90
2023-05-16T02:11:50.537Z,10.83
2023-05-16T02:16:42.575Z,10.78
2023-05-16T02:21:35.101Z,10.56
2023-05-16T02:26:27.016Z,10.51
2023-05-16T02:31:30.108Z,9.92
2023-05-16T02:36:22.143Z,9.90
2023-05-16T02:41:14.295Z,9.32
2023-05-16T02:46:24.239Z,9.85
2023-05-16T02:51:16.244Z,9.56
2023-05-16T02:56:12.096Z,9.17
2023-05-16T03:01:05.335Z,9.31
2023-05-16T03:05:58.126Z,8.70
2023-05-16T03:10:51.457Z,9.45
2023-05-16T03:15:44.073Z,9.62
2023-05-16T03:20:36.177Z,9.48
2023-05-16T03:25:28.304Z,9.73
2023-05-16T03:30:20.864Z,9.43
2023-05-16T03:35:13.138Z,9.22
2023-05-16T03:40:05.973Z,9.23
2023-05-16T03:44:58.248Z,9.67
2023-05-16T03:49:50.146Z,10.09
2023-05-16T03:54:44.105Z,10.09
2023-05-16T03:59:36.376Z,9.20
2023-05-16T04:04:30.552Z,10.04
2023-05-16T04:09:22.544Z,9.61
2023-05-16T04:14:15.654Z,9.77
2023-05-16T04:19:09.999Z,9.63
2023-05-16T04:24:02.125Z,9.62
2023-05-16T04:28:54.081Z,9.97
2023-05-16T04:33:46.353Z,9.93
2023-05-16T04:38:38.142Z,9.92
2023-05-16T04:43:31.184Z,9.53
2023-05-16T04:48:23.028Z,9.41
2023-05-16T04:53:15.230Z,9.62
2023-05-16T04:58:07.067Z,9.16
2023-05-16T05:02:59.316Z,9.21
2023-05-16T05:07:51.406Z,8.64
2023-05-16T05:12:46.255Z,10.85
2023-05-16T05:17:38.321Z,13.44
2023-05-16T05:22:31.912Z,14.68
2023-05-16T05:27:23.843Z,16.41
2023-05-16T05:32:16.068Z,17.73
2023-05-16T05:37:08.066Z,19.27
2023-05-16T05:42:04.905Z,18.72
2023-05-16T05:46:58.356Z,17.86
2023-05-16T05:51:52.310Z,17.01
2023-05-16T05:56:44.261Z,16.76
2023-05-16T06:01:36.792Z,15.24
2023-05-16T06:06:29.280Z,15.76
2023-05-16T06:11:22.968Z,15.26
2023-05-16T06:16:16.169Z,17.85
2023-05-16T06:21:11.420Z,19.75
2023-05-16T06:26:05.680Z,22.28
2023-05-16T06:30:57.968Z,23.65
2023-05-16T06:35:50.394Z,23.04
2023-05-16T06:40:42.806Z,21.56
2023-05-16T06:45:34.902Z,21.43
2023-05-16T06:50:27.300Z,22.87
2023-05-16T06:55:19.351Z,23.93
2023-05-16T07:00:12.053Z,24.62
2023-05-16T07:05:04.186Z,24.63
2023-05-16T07:09:57.629Z,24.94
2023-05-16T07:14:49.692Z,26.28
2023-05-16T07:19:42.179Z,27.41
2023-05-16T07:24:35.789Z,27.08
2023-05-16T07:29:28.512Z,24.99
2023-05-16T07:34:20.806Z,25.74
2023-05-16T07:39:14.986Z,25.37
2023-05-16T07:44:06.906Z,26.35
2023-05-16T07:48:59.069Z,25.08
2023-05-16T07:53:52.103Z,23.85
2023-05-16T07:58:44.214Z,20.64
2023-05-16T08:03:36.944Z,18.34
2023-05-16T08:08:29.670Z,17.24
2023-05-16T08:13:21.770Z,16.80
2023-05-16T08:18:18.845Z,16.41
2023-05-16T08:23:12.650Z,16.25
2023-05-16T08:28:06.100Z,15.87
2023-05-16T08:32:58.120Z,18.42
2023-05-16T08:37:51.317Z,18.41
2023-05-16T08:42:45.857Z,20.26
2023-05-16T08:47:41.684Z,20.33
2023-05-16T08:52:36.467Z,23.63
2023-05-16T08:57:30.869Z,24.32
2023-05-16T09:02:23.059Z,23.21
2023-05-16T09:07:15.330Z,23.01
2023-05-16T09:12:08.275Z,23.18
2023-05-16T09:17:06.502Z,23.37
2023-05-16T09:21:58.551Z,22.37
2023-05-16T09:26:53.322Z,19.80
2023-05-16T09:31:45.491Z,19.95
2023-05-16T09:36:37.835Z,20.04
2023-05-16T09:41:35.224Z,19.71
2023-05-16T09:46:28.854Z,20.20
2023-05-16T09:51:24.099Z,21.30
2023-05-16T09:56:16.952Z,22.39
2023-05-16T10:01:10.695Z,20.28
2023-05-16T10:06:04.499Z,18.81
2023-05-16T10:10:57.154Z,19.01
2023-05-16T10:16:00.685Z,19.36
2023-05-16T10:20:55.615Z,17.82
2023-05-16T10:25:49.746Z,17.30
2023-05-16T10:30:45.268Z,18.13
2023-05-16T10:35:39.030Z,17.72
2023-05-16T10:40:31.941Z,17.49
2023-05-16T10:45:24.579Z,17.23
2023-05-16T10:50:42.970Z,17.47
2023-05-16T10:55:36.352Z,17.77
2023-05-16T11:00:30.481Z,18.30
2023-05-16T11:05:26.590Z,17.81
2023-05-16T11:10:20.370Z,17.28
2023-05-16T11:15:29.351Z,17.57
2023-05-16T11:20:27.269Z,17.36
2023-05-16T11:25:36.317Z,18.19
2023-05-16T11:30:29.974Z,18.18
2023-05-16T11:35:25.249Z,18.87
2023-05-16T11:40:17.691Z,19.38
2023-05-16T11:45:19.367Z,19.55
2023-05-16T11:50:13.358Z,19.78
2023-05-16T11:55:11.982Z,18.74
2023-05-16T12:00:18.329Z,18.63
2023-05-16T12:05:10.905Z,18.80
2023-05-16T12:10:12.411Z,19.02
2023-05-16T12:15:06.814Z,18.29
2023-05-16T12:19:59.019Z,17.94
2023-05-16T12:24:52.000Z,17.21
2023-05-16T12:29:49.306Z,16.28
2023-05-16T12:34:50.231Z,16.92
2023-05-16T12:39:42.188Z,17.65
2023-05-16T12:44:36.870Z,18.17
2023-05-16T12:49:28.935Z,18.44
2023-05-16T12:54:23.127Z,18.80
2023-05-16T12:59:16.191Z,18.84
2023-05-16T13:04:09.188Z,17.36
2023-05-16T13:09:02.232Z,17.40
2023-05-16T13:13:54.244Z,16.36
2023-05-16T13:18:46.400Z,16.92
2023-05-16T13:23:38.934Z,16.67
2023-05-16T13:28:32.341Z,17.65
2023-05-16T13:33:24.808Z,17.51
2023-05-16T13:38:16.936Z,17.74
2023-05-16T13:43:10.793Z,18.38
2023-05-16T13:48:02.739Z,17.83
2023-05-16T13:52:54.612Z,17.60
2023-05-16T13:57:46.873Z,18.99
2023-05-16T14:02:40.723Z,19.24
2023-05-16T14:07:32.779Z,19.13
2023-05-16T14:12:25.000Z,18.91
2023-05-16T14:17:18.144Z,18.58
2023-05-16T14:22:11.475Z,18.06
2023-05-16T14:27:03.946Z,18.55
2023-05-16T14:31:56.683Z,18.30
2023-05-16T14:36:48.888Z,17.82
2023-05-16T14:41:40.723Z,17.88
2023-05-16T14:46:32.899Z,18.18
2023-05-16T14:51:25.601Z,18.39
2023-05-16T14:56:18.651Z,18.33
2023-05-16T15:01:10.849Z,18.06
2023-05-16T15:06:05.386Z,17.40
2023-05-16T15:10:59.196Z,17.47
2023-05-16T15:15:51.594Z,17.33
2023-05-16T15:20:44.135Z,17.30
2023-05-16T15:25:40.447Z,17.48
2023-05-16T15:30:33.414Z,16.67
2023-05-16T15:35:26.314Z,16.93
2023-05-16T15:40:21.268Z,16.92
2023-05-16T15:45:16.840Z,17.04
2023-05-16T15:50:09.506Z,16.74
2023-05-16T15:55:06.032Z,16.28
2023-05-16T15:59:59.342Z,16.71
2023-05-16T16:04:51.976Z,16.58
2023-05-16T16:09:44.363Z,16.14
2023-05-16T16:14:36.411Z,15.93
2023-05-16T16:19:29.925Z,16.66
2023-05-16T16:24:21.837Z,16.81
2023-05-16T16:29:15.900Z,16.79
2023-05-16T16:34:07.942Z,16.70
2023-05-16T16:39:00.799Z,16.65
2023-05-16T16:43:52.952Z,16.38
2023-05-16T16:48:46.529Z,15.88
2023-05-16T16:53:38.378Z,15.41
2023-05-16T16:58:33.321Z,14.25
2023-05-16T17:03:25.428Z,15.98
2023-05-16T17:08:18.133Z,15.40
2023-05-16T17:13:12.305Z,15.17
2023-05-16T17:18:08.637Z,15.10
2023-05-16T17:23:03.412Z,14.34
2023-05-16T17:27:56.222Z,14.79
2023-05-16T17:32:48.478Z,14.74
2023-05-16T17:37:41.794Z,14.44
2023-05-16T17:42:35.490Z,14.24
2023-05-16T17:47:27.375Z,14.33
2023-05-16T17:52:20.234Z,13.98
2023-05-16T17:57:12.142Z,13.90
2023-05-16T18:02:04.214Z,14.22
2023-05-16T18:06:57.041Z,14.04
2023-05-16T18:11:49.562Z,14.15
2023-05-16T18:16:42.033Z,14.09
2023-05-16T18:21:33.997Z,11.97
2023-05-16T18:26:29.869Z,13.93
2023-05-16T18:31:22.701Z,14.04
2023-05-16T18:36:14.650Z,13.89
2023-05-16T18:41:07.405Z,13.93
2023-05-16T18:46:00.067Z,13.44
2023-05-16T18:50:53.475Z,13.56
2023-05-16T18:55:45.447Z,13.48
2023-05-16T19:00:37.378Z,13.44
2023-05-16T19:05:29.632Z,13.40
2023-05-16T19:10:22.100Z,13.14
2023-05-16T19:15:13.939Z,13.36
2023-05-16T19:20:06.644Z,12.88
2023-05-16T19:24:59.627Z,12.56
2023-05-16T19:29:52.404Z,12.88
2023-05-16T19:34:44.539Z,12.98
2023-05-16T19:39:37.561Z,12.63
2023-05-16T19:44:31.063Z,12.82
2023-05-16T19:49:22.952Z,13.14
2023-05-16T19:54:15.992Z,12.39
2023-05-16T19:59:08.836Z,12.98
2023-05-16T20:04:01.951Z,12.77
2023-05-16T20:08:53.944Z,12.97
2023-05-16T20:13:45.929Z,13.12
2023-05-16T20:18:38.181Z,12.52
2023-05-16T20:23:31.042Z,12.96
2023-05-16T20:28:23.157Z,12.67
2023-05-16T20:33:15.169Z,11.80
2023-05-16T20:38:07.116Z,11.87
2023-05-16T20:42:59.150Z,12.41
2023-05-16T20:47:51.497Z,12.29
2023-05-16T20:52:44.022Z,12.00
2023-05-16T20:57:37.675Z,11.75
2023-05-16T21:02:29.778Z,12.34
2023-05-16T21:07:21.792Z,12.15
2023-05-16T21:12:14.407Z,11.83
2023-05-16T21:17:06.403Z,12.36
2023-05-16T21:21:59.136Z,11.76
2023-05-16T21:26:52.375Z,11.64
2023-05-16T21:31:44.214Z,11.67
2023-05-16T21:36:36.804Z,11.66
2023-05-16T21:41:28.685Z,11.44
2023-05-16T21:46:21.022Z,11.61
2023-05-16T21:51:13.790Z,11.19
2023-05-16T21:56:06.604Z,11.52
2023-05-16T22:01:00.337Z,11.39
2023-05-16T22:05:52.227Z,11.53
2023-05-16T22:10:44.143Z,10.36
2023-05-16T22:15:36.115Z,11.40
2023-05-16T22:20:29.803Z,11.19
2023-05-16T22:25:21.814Z,11.08
2023-05-16T22:30:13.798Z,10.85
2023-05-16T22:35:06.142Z,10.55
2023-05-16T22:40:01.417Z,10.52
2023-05-16T22:44:54.199Z,10.08
2023-05-16T22:49:46.012Z,10.25
2023-05-16T22:54:37.918Z,10.17
2023-05-16T22:59:30.584Z,10.29
2023-05-16T23:04:25.915Z,10.35
2023-05-16T23:09:17.872Z,9.95
2023-05-16T23:14:09.886Z,9.99
2023-05-16T23:19:03.182Z,9.66
2023-05-16T23:23:56.133Z,10.00
2023-05-16T23:28:48.295Z,9.97
2023-05-16T23:33:43.530Z,9.84
2023-05-16T23:38:36.796Z,9.55
2023-05-16T23:43:29.601Z,9.55
2023-05-16T23:48:23.145Z,9.51
2023-05-16T23:53:15.502Z,8.85
2023-05-16T23:58:07.347Z,9.47
